createdAt,value
2023-01-09T00:08:02.175Z,6.6
2023-01-09T00:20:02.217Z,5.7
2023-01-09T00:32:02.172Z,5.6
2023-01-09T00:44:02.107Z,5.4
2023-01-09T00:56:02.104Z,5.1
2023-01-09T01:08:02.169Z,5.0
2023-01-09T01:20:02.097Z,4.9
2023-01-09T01:32:02.169Z,4.8
2023-01-09T01:44:02.160Z,4.7
2023-01-09T01:56:02.218Z,4.7
2023-01-09T02:08:02.103Z,4.7
2023-01-09T02:20:02.179Z,4.8
2023-01-09T02:32:02.229Z,4.8
2023-01-09T02:44:02.115Z,4.9
2023-01-09T02:56:02.107Z,5.0
2023-01-09T03:08:02.106Z,4.9
2023-01-09T03:20:02.098Z,4.9
2023-01-09T03:32:02.111Z,4.9
2023-01-09T03:44:02.106Z,4.9
2023-01-09T03:56:02.186Z,4.9
2023-01-09T04:08:02.160Z,4.9
2023-01-09T04:20:02.096Z,5.0
2023-01-09T04:32:02.133Z,4.8
2023-01-09T04:44:02.126Z,4.7
2023-01-09T04:56:02.121Z,4.7
2023-01-09T05:08:02.124Z,4.5
2023-01-09T05:20:02.106Z,4.3
2023-01-09T05:32:02.128Z,4.4
2023-01-09T05:44:02.174Z,4.5
2023-01-09T05:56:02.102Z,4.5
2023-01-09T06:08:02.113Z,4.6
2023-01-09T06:20:02.195Z,4.6
2023-01-09T06:32:02.192Z,4.6
2023-01-09T06:44:02.170Z,4.6
2023-01-09T06:56:02.172Z,4.6
2023-01-09T07:08:02.226Z,4.6
2023-01-09T07:20:02.101Z,4.6
2023-01-09T07:32:02.136Z,4.7
2023-01-09T07:44:02.199Z,4.7
2023-01-09T07:56:02.105Z,4.6
2023-01-09T08:08:02.137Z,4.5
2023-01-09T08:20:02.200Z,4.5
2023-01-09T08:32:02.154Z,4.6
2023-01-09T08:44:02.187Z,4.7
2023-01-09T08:56:02.110Z,4.9
2023-01-09T09:08:02.201Z,5.0
2023-01-09T09:20:02.217Z,5.1
2023-01-09T09:32:02.151Z,5.3
2023-01-09T09:44:02.144Z,5.6
2023-01-09T09:56:02.106Z,5.7
2023-01-09T10:08:14.958Z,6.0
2023-01-09T10:20:02.103Z,5.9
2023-01-09T10:32:02.187Z,6.1
2023-01-09T10:44:02.149Z,6.1
2023-01-09T10:56:02.107Z,6.0
2023-01-09T11:08:02.113Z,5.9
2023-01-09T11:20:02.188Z,5.9
2023-01-09T11:32:02.139Z,6.0
2023-01-09T11:44:02.162Z,6.1
2023-01-09T11:56:02.115Z,6.2
2023-01-09T12:08:02.222Z,6.3
2023-01-09T12:20:02.194Z,6.2
2023-01-09T12:32:02.246Z,6.2
2023-01-09T12:44:02.181Z,6.1
2023-01-09T12:56:02.142Z,6.1
2023-01-09T13:08:02.179Z,6.0
2023-01-09T13:20:02.204Z,6.0
2023-01-09T13:32:02.150Z,6.0
2023-01-09T13:44:02.180Z,6.1
2023-01-09T13:56:02.232Z,6.0
2023-01-09T14:08:02.110Z,5.9
2023-01-09T14:20:02.209Z,5.9
2023-01-09T14:32:04.370Z,5.8
2023-01-09T14:44:02.218Z,5.5
2023-01-09T14:56:02.552Z,5.4
2023-01-09T15:08:02.130Z,5.4
2023-01-09T15:20:02.123Z,5.2
2023-01-09T15:32:02.325Z,5.3
2023-01-09T15:44:02.201Z,5.0
2023-01-09T15:56:02.108Z,4.9
2023-01-09T16:08:02.177Z,5.0
2023-01-09T16:20:02.179Z,5.0
2023-01-09T16:32:02.281Z,5.0
2023-01-09T16:44:02.102Z,4.9
2023-01-09T16:56:02.282Z,4.8
2023-01-09T17:08:02.114Z,4.8
2023-01-09T17:20:02.113Z,4.5
2023-01-09T17:32:02.175Z,4.3
2023-01-09T17:44:02.206Z,4.3
2023-01-09T17:56:02.207Z,4.3
2023-01-09T18:08:02.185Z,4.3
2023-01-09T18:20:02.109Z,4.4
2023-01-09T18:32:02.294Z,4.3
2023-01-09T18:44:02.179Z,4.3
2023-01-09T18:56:02.150Z,4.2
2023-01-09T19:08:02.178Z,4.2
2023-01-09T19:20:02.218Z,4.0
2023-01-09T19:32:02.267Z,4.0
2023-01-09T19:44:02.111Z,3.9
2023-01-09T19:56:02.218Z,3.9
2023-01-09T20:08:02.106Z,4.0
2023-01-09T20:20:02.148Z,3.9
2023-01-09T20:32:02.189Z,3.9
2023-01-09T20:44:02.101Z,3.9
2023-01-09T20:56:02.144Z,3.9
2023-01-09T21:08:02.105Z,3.9
2023-01-09T21:20:02.217Z,3.9
2023-01-09T21:32:02.292Z,3.9
2023-01-09T21:44:02.189Z,3.9
2023-01-09T21:56:02.193Z,3.9
2023-01-09T22:08:02.110Z,3.8
2023-01-09T22:20:03.022Z,3.9
2023-01-09T22:32:02.208Z,3.9
2023-01-09T22:44:02.139Z,3.8
2023-01-09T22:56:02.205Z,3.8
2023-01-09T23:08:02.165Z,3.7
2023-01-09T23:20:02.220Z,3.7
2023-01-09T23:32:02.319Z,3.7
2023-01-09T23:44:02.175Z,3.6
2023-01-09T23:56:02.103Z,3.6
